Time;durP1;ratioP1;P1;durP2;ratioP2;P2;SDS_P1;SDS_P2;PMS_P1;PMS_P2;Temp;Humidity;BMP_temperature;BMP_pressure;BME280_temperature;BME280_humidity;BME280_pressure;Samples;Min_cycle;Max_cycle;Signal;HPM_P1;HPM_P2
2021/08/04 00:00:04;;;;;;;4.37;3.80;;;18.40;1.00;;;;;;5048830;28;21326;-71
2021/08/04 00:02:30;;;;;;;4.30;3.90;;;18.40;1.00;;;;;;5035274;28;20463;-72
2021/08/04 00:04:57;;;;;;;6.10;4.23;;;18.40;1.00;;;;;;5049739;28;20465;-72
2021/08/04 00:07:24;;;;;;;4.37;4.00;;;18.30;1.00;;;;;;5052075;28;20984;-70
2021/08/04 00:09:50;;;;;;;4.27;3.90;;;18.30;1.00;;;;;;5049932;28;20458;-72
2021/08/04 00:12:17;;;;;;;4.13;3.73;;;18.30;1.00;;;;;;5049856;28;20466;-71
2021/08/04 00:14:44;;;;;;;4.53;4.07;;;18.30;1.00;;;;;;5049104;28;20456;-70
2021/08/04 00:17:12;;;;;;;5.27;3.83;;;18.30;1.00;;;;;;5047607;28;20455;-71
2021/08/04 00:19:38;;;;;;;5.50;4.13;;;18.30;1.00;;;;;;5049172;28;20452;-72
2021/08/04 00:22:06;;;;;;;4.90;4.40;;;18.20;1.00;;;;;;5048131;28;20467;-72
2021/08/04 00:24:32;;;;;;;4.97;4.57;;;18.20;1.00;;;;;;5050198;28;20471;-72
2021/08/04 00:26:59;;;;;;;4.70;4.00;;;18.20;1.00;;;;;;5047687;28;21024;-71
2021/08/04 00:29:26;;;;;;;4.27;3.87;;;18.10;1.00;;;;;;5050643;28;21367;-72
2021/08/04 00:31:52;;;;;;;4.17;3.77;;;18.10;1.00;;;;;;5044618;28;20468;-72
2021/08/04 00:34:20;;;;;;;7.40;4.30;;;18.10;1.00;;;;;;5046725;28;20969;-72
2021/08/04 00:36:47;;;;;;;4.47;3.87;;;18.10;1.00;;;;;;5044761;28;21418;-72
2021/08/04 00:39:14;;;;;;;4.20;3.80;;;18.10;1.00;;;;;;5046233;28;20443;-72
2021/08/04 00:41:42;;;;;;;5.83;4.40;;;18.10;1.00;;;;;;5045445;28;20483;-71
2021/08/04 00:44:09;;;;;;;4.90;4.40;;;18.10;1.00;;;;;;5029539;28;20440;-71
2021/08/04 00:46:40;;;;;;;5.43;4.13;;;18.10;1.00;;;;;;5043358;28;20446;-72
2021/08/04 00:49:07;;;;;;;4.30;3.90;;;18.00;1.00;;;;;;5027429;28;20550;-70
2021/08/04 00:51:35;;;;;;;4.30;3.90;;;18.00;1.00;;;;;;5046630;28;20958;-71
2021/08/04 00:54:03;;;;;;;5.73;4.00;;;17.90;1.00;;;;;;5053522;28;20460;-70
2021/08/04 00:56:30;;;;;;;4.30;3.90;;;17.90;1.00;;;;;;5045312;28;20467;-71
2021/08/04 00:58:57;;;;;;;4.73;4.33;;;17.90;1.00;;;;;;5049403;28;20454;-71
2021/08/04 01:01:26;;;;;;;6.83;4.33;;;17.90;1.00;;;;;;5045404;28;20452;-72
2021/08/04 01:03:56;;;;;;;4.87;3.87;;;17.80;1.00;;;;;;5046976;28;20472;-72
2021/08/04 01:06:29;;;;;;;4.07;3.67;;;17.80;1.00;;;;;;5047162;28;20443;-71
2021/08/04 01:08:58;;;;;;;4.90;3.57;;;17.80;1.00;;;;;;5045109;28;21193;-72
2021/08/04 01:11:30;;;;;;;4.40;4.00;;;17.80;1.00;;;;;;5048490;28;20447;-72
2021/08/04 01:14:00;;;;;;;4.07;3.70;;;17.90;1.00;;;;;;5045894;28;20459;-71
2021/08/04 01:16:31;;;;;;;3.60;3.30;;;17.80;1.00;;;;;;5049391;28;20458;-72
2021/08/04 01:19:02;;;;;;;3.93;2.90;;;17.90;1.00;;;;;;5051360;28;20462;-72
2021/08/04 01:21:36;;;;;;;3.57;3.27;;;17.90;1.00;;;;;;5049979;28;20462;-72
2021/08/04 01:24:11;;;;;;;4.50;3.63;;;17.90;1.00;;;;;;5049250;28;20459;-72
2021/08/04 01:26:42;;;;;;;3.83;3.50;;;17.90;1.00;;;;;;5049191;28;20478;-71
2021/08/04 01:29:13;;;;;;;3.30;3.00;;;17.80;1.00;;;;;;5050252;28;20463;-72
2021/08/04 01:31:42;;;;;;;3.87;3.23;;;17.80;1.00;;;;;;5051831;28;20467;-70
2021/08/04 01:34:10;;;;;;;4.00;3.70;;;17.80;1.00;;;;;;5049009;28;20452;-72
2021/08/04 01:36:38;;;;;;;4.40;4.00;;;17.70;1.00;;;;;;5048577;28;20448;-71
2021/08/04 01:39:06;;;;;;;4.20;3.90;;;17.80;1.00;;;;;;5047249;28;20464;-70
2021/08/04 01:41:35;;;;;;;3.53;3.23;;;17.70;1.00;;;;;;5050272;28;20451;-71
2021/08/04 01:44:06;;;;;;;4.00;3.60;;;17.70;1.00;;;;;;5045400;28;20491;-72
2021/08/04 01:46:33;;;;;;;3.73;3.40;;;17.70;1.00;;;;;;5031180;28;20428;-71
2021/08/04 01:49:02;;;;;;;4.17;3.77;;;17.70;1.00;;;;;;5047208;28;20448;-71
2021/08/04 01:51:29;;;;;;;4.13;3.77;;;17.70;1.00;;;;;;5044089;28;20460;-70
2021/08/04 01:53:56;;;;;;;4.10;3.80;;;17.70;1.00;;;;;;5043963;28;20582;-71
2021/08/04 01:56:24;;;;;;;4.13;3.83;;;17.70;1.00;;;;;;5044561;28;20431;-70
2021/08/04 01:58:51;;;;;;;3.87;3.57;;;17.70;1.00;;;;;;5027923;28;20463;-71
2021/08/04 02:01:19;;;;;;;4.30;3.90;;;17.70;1.00;;;;;;5045087;28;20523;-72
2021/08/04 02:03:46;;;;;;;4.27;3.87;;;17.70;1.00;;;;;;5040934;28;20471;-72
2021/08/04 02:06:19;;;;;;;4.40;4.00;;;17.70;1.00;;;;;;5046701;28;20435;-71
2021/08/04 02:08:56;;;;;;;5.40;4.90;;;17.70;1.00;;;;;;5045532;28;20447;-71
2021/08/04 02:11:28;;;;;;;4.30;4.00;;;17.70;1.00;;;;;;5046289;28;20435;-71
2021/08/04 02:14:00;;;;;;;4.47;3.50;;;17.70;1.00;;;;;;5050086;28;20504;-71
2021/08/04 02:16:34;;;;;;;5.00;4.57;;;17.70;1.00;;;;;;5045595;28;20458;-71
2021/08/04 02:19:12;;;;;;;5.40;4.90;;;17.70;1.00;;;;;;5048747;28;20455;-71
2021/08/04 02:21:42;;;;;;;5.37;4.20;;;17.70;1.00;;;;;;5051398;28;20444;-71
2021/08/04 02:24:11;;;;;;;4.97;4.57;;;17.70;1.00;;;;;;5047794;28;20460;-70
2021/08/04 02:26:40;;;;;;;5.60;5.10;;;17.70;1.00;;;;;;5045400;28;20427;-70
2021/08/04 02:29:08;;;;;;;5.43;4.63;;;17.60;1.00;;;;;;5070237;28;20487;-70
2021/08/04 02:31:37;;;;;;;4.87;4.37;;;17.50;1.00;;;;;;5069309;28;20410;-69
2021/08/04 02:34:05;;;;;;;8.60;7.80;;;17.40;1.00;;;;;;5074782;28;20483;-70
2021/08/04 02:36:31;;;;;;;7.37;6.60;;;17.20;1.00;;;;;;5061560;28;20452;-71
2021/08/04 02:39:01;;;;;;;6.13;5.53;;;17.10;1.00;;;;;;5048857;28;20813;-71
2021/08/04 02:41:28;;;;;;;7.70;5.77;;;17.00;1.00;;;;;;5049499;28;20762;-71
2021/08/04 02:43:55;;;;;;;6.60;5.70;;;16.90;1.00;;;;;;5045391;28;20472;-71
2021/08/04 02:46:23;;;;;;;6.10;5.50;;;16.80;1.00;;;;;;5048364;28;20443;-71
2021/08/04 02:48:51;;;;;;;5.87;5.20;;;16.70;1.00;;;;;;5050709;28;21734;-70
2021/08/04 02:51:22;;;;;;;6.17;5.57;;;16.70;1.00;;;;;;5047080;28;20456;-70
2021/08/04 02:53:55;;;;;;;6.20;5.60;;;16.60;1.00;;;;;;5048151;28;20452;-72
2021/08/04 02:56:22;;;;;;;7.00;6.27;;;16.50;1.00;;;;;;5044041;28;20950;-71
2021/08/04 02:58:49;;;;;;;7.13;6.47;;;16.50;1.00;;;;;;5045896;28;20843;-71
2021/08/04 03:01:15;;;;;;;6.10;5.60;;;16.50;1.00;;;;;;5049041;28;20533;-71
2021/08/04 03:03:42;;;;;;;7.10;6.40;;;16.40;1.00;;;;;;5044540;28;20474;-70
2021/08/04 03:06:10;;;;;;;6.50;6.00;;;16.40;1.00;;;;;;5041268;28;20479;-71
2021/08/04 03:08:37;;;;;;;7.23;6.53;;;16.40;1.00;;;;;;5049229;28;20470;-71
2021/08/04 03:11:04;;;;;;;7.00;6.40;;;16.40;1.00;;;;;;5045235;28;20996;-71
2021/08/04 03:13:31;;;;;;;7.30;6.70;;;16.40;1.00;;;;;;5046591;28;20462;-71
2021/08/04 03:15:57;;;;;;;8.30;6.50;;;16.30;1.00;;;;;;5045571;28;20454;-71
2021/08/04 03:18:24;;;;;;;7.10;6.40;;;16.30;1.00;;;;;;5045003;28;20493;-70
2021/08/04 03:20:50;;;;;;;7.93;7.23;;;16.30;1.00;;;;;;5045844;28;20454;-71
2021/08/04 03:23:19;;;;;;;8.40;7.70;;;16.40;1.00;;;;;;5048522;28;20469;-71
2021/08/04 03:25:45;;;;;;;7.37;6.67;;;16.30;1.00;;;;;;5047155;28;20438;-70
2021/08/04 03:28:12;;;;;;;7.77;7.10;;;16.40;1.00;;;;;;5049271;28;24442;-71
2021/08/04 03:30:39;;;;;;;8.23;7.43;;;16.40;1.00;;;;;;5044565;28;20503;-72
2021/08/04 03:33:05;;;;;;;7.70;7.00;;;16.40;1.00;;;;;;5046832;28;20453;-72
2021/08/04 03:35:32;;;;;;;7.90;7.20;;;16.30;1.00;;;;;;5044160;28;20463;-72
2021/08/04 03:37:59;;;;;;;7.40;6.77;;;16.40;1.00;;;;;;5045980;28;20446;-72
2021/08/04 03:40:27;;;;;;;8.63;7.73;;;16.30;1.00;;;;;;5049436;28;20446;-72
2021/08/04 03:42:54;;;;;;;7.80;7.20;;;16.40;1.00;;;;;;5046180;28;20451;-72
2021/08/04 03:45:21;;;;;;;7.77;7.07;;;16.40;1.00;;;;;;5048253;28;20434;-72
2021/08/04 03:47:47;;;;;;;8.00;7.20;;;16.30;1.00;;;;;;5046731;28;20447;-70
2021/08/04 03:50:14;;;;;;;8.93;8.13;;;16.40;1.00;;;;;;5051499;28;24538;-71
2021/08/04 03:52:42;;;;;;;9.70;8.40;;;16.40;1.00;;;;;;5029714;28;20470;-72
2021/08/04 03:55:10;;;;;;;8.97;8.07;;;16.40;1.00;;;;;;5047758;28;20515;-71
2021/08/04 03:57:38;;;;;;;8.40;7.70;;;16.40;1.00;;;;;;5047169;28;20451;-72
2021/08/04 04:00:06;;;;;;;9.23;7.87;;;16.40;1.00;;;;;;5047583;28;20459;-70
2021/08/04 04:02:33;;;;;;;7.93;7.20;;;16.40;1.00;;;;;;5050811;28;20463;-70
2021/08/04 04:05:01;;;;;;;7.87;7.20;;;16.50;1.00;;;;;;5044637;28;20447;-73
2021/08/04 04:07:27;;;;;;;8.60;7.90;;;16.50;1.00;;;;;;5045541;28;20481;-74
2021/08/04 04:09:54;;;;;;;8.83;7.93;;;16.50;1.00;;;;;;5046103;28;20470;-70
2021/08/04 04:12:21;;;;;;;8.97;8.10;;;16.50;1.00;;;;;;5037124;28;20448;-70
2021/08/04 04:14:49;;;;;;;8.30;7.60;;;16.60;1.00;;;;;;5049455;28;20439;-74
2021/08/04 04:17:15;;;;;;;8.60;7.90;;;16.60;1.00;;;;;;5051452;28;21270;-71
2021/08/04 04:19:42;;;;;;;11.93;8.00;;;16.60;1.00;;;;;;5049296;28;20469;-71
2021/08/04 04:22:09;;;;;;;9.30;7.67;;;16.60;1.00;;;;;;5048949;28;20822;-73
2021/08/04 04:24:35;;;;;;;8.50;7.77;;;16.70;1.00;;;;;;5047150;28;20473;-72
2021/08/04 04:27:03;;;;;;;10.53;9.50;;;16.70;1.00;;;;;;5052712;28;20476;-72
2021/08/04 04:29:30;;;;;;;9.50;8.07;;;16.80;1.00;;;;;;5030589;28;20459;-71
2021/08/04 04:31:58;;;;;;;10.10;9.07;;;16.70;1.00;;;;;;5046995;28;21056;-73
2021/08/04 04:34:24;;;;;;;10.67;9.50;;;16.80;1.00;;;;;;5050678;28;20518;-71
2021/08/04 04:36:51;;;;;;;9.13;8.23;;;16.80;1.00;;;;;;5049597;28;20699;-71
2021/08/04 04:39:18;;;;;;;8.47;7.67;;;16.90;1.00;;;;;;5051048;28;20471;-71
2021/08/04 04:41:45;;;;;;;9.30;8.40;;;16.90;1.00;;;;;;5048531;28;20455;-72
2021/08/04 04:44:11;;;;;;;9.30;8.43;;;17.00;1.00;;;;;;5050014;28;20475;-72
2021/08/04 04:46:38;;;;;;;9.57;8.67;;;16.90;1.00;;;;;;5055200;28;20536;-71
2021/08/04 04:49:06;;;;;;;10.90;9.93;;;17.00;1.00;;;;;;5064787;28;20442;-71
2021/08/04 04:51:33;;;;;;;10.03;9.13;;;17.00;1.00;;;;;;5063977;28;20463;-72
2021/08/04 04:54:00;;;;;;;10.30;9.40;;;17.10;1.00;;;;;;5062177;28;21705;-70
2021/08/04 04:56:26;;;;;;;9.83;8.83;;;17.10;1.00;;;;;;5062420;28;20470;-71
2021/08/04 04:58:54;;;;;;;9.77;8.87;;;17.10;1.00;;;;;;5059148;28;20460;-71
2021/08/04 05:01:21;;;;;;;10.00;8.90;;;17.20;1.00;;;;;;5057889;28;20459;-71
2021/08/04 05:03:49;;;;;;;10.40;9.43;;;17.20;1.00;;;;;;5072055;28;20475;-70
2021/08/04 05:06:17;;;;;;;11.60;10.50;;;17.20;1.00;;;;;;5058142;28;20431;-71
2021/08/04 05:08:43;;;;;;;10.80;9.73;;;17.20;1.00;;;;;;5076507;28;20422;-71
2021/08/04 05:11:10;;;;;;;11.50;10.43;;;17.20;1.00;;;;;;5071764;28;20422;-70
2021/08/04 05:13:38;;;;;;;9.00;8.30;;;17.30;1.00;;;;;;5072761;28;21029;-71
2021/08/04 05:16:05;;;;;;;9.67;8.87;;;17.40;1.00;;;;;;5081353;28;21602;-72
2021/08/04 05:18:32;;;;;;;8.63;7.83;;;17.30;1.00;;;;;;5092425;28;20431;-71
2021/08/04 05:20:58;;;;;;;9.50;8.70;;;17.30;1.00;;;;;;5085337;28;20443;-70
2021/08/04 05:23:26;;;;;;;9.73;8.20;;;17.40;1.00;;;;;;5088126;28;20446;-70
2021/08/04 05:25:53;;;;;;;11.93;7.93;;;17.40;1.00;;;;;;5080306;28;20411;-71
2021/08/04 05:28:20;;;;;;;9.83;8.87;;;17.50;1.00;;;;;;5076460;28;20444;-71
2021/08/04 05:30:46;;;;;;;8.80;8.07;;;17.50;1.00;;;;;;5078219;28;20435;-73
2021/08/04 05:33:13;;;;;;;8.90;8.10;;;17.60;1.00;;;;;;5083517;28;20423;-73
2021/08/04 05:35:40;;;;;;;9.83;8.93;;;17.70;1.00;;;;;;5076608;28;20885;-72
2021/08/04 05:38:07;;;;;;;8.83;8.03;;;17.70;1.00;;;;;;5060974;28;21338;-73
2021/08/04 05:40:35;;;;;;;10.20;8.90;;;17.80;1.00;;;;;;5063130;28;20518;-73
2021/08/04 05:43:01;;;;;;;8.90;7.80;;;17.80;1.00;;;;;;5055351;28;20462;-73
2021/08/04 05:45:28;;;;;;;8.73;7.93;;;17.80;1.00;;;;;;5059877;28;20457;-73
2021/08/04 05:47:55;;;;;;;8.60;7.77;;;17.70;1.00;;;;;;5058214;28;20470;-74
2021/08/04 05:50:22;;;;;;;9.30;8.07;;;17.80;1.00;;;;;;5057789;28;20787;-74
2021/08/04 05:52:50;;;;;;;8.70;8.00;;;17.80;1.00;;;;;;5057437;28;20536;-73
2021/08/04 05:55:17;;;;;;;8.33;7.53;;;17.80;1.00;;;;;;5060367;28;20425;-74
2021/08/04 05:57:45;;;;;;;7.63;6.90;;;18.00;1.00;;;;;;5066378;28;21498;-73
2021/08/04 06:00:13;;;;;;;10.30;9.40;;;18.20;1.00;;;;;;5062362;28;20478;-71
2021/08/04 06:02:40;;;;;;;7.93;7.23;;;18.30;1.00;;;;;;5056526;28;21404;-71
2021/08/04 06:05:07;;;;;;;7.43;6.63;;;18.50;1.00;;;;;;5052910;28;20440;-72
2021/08/04 06:07:34;;;;;;;9.20;7.20;;;18.60;1.00;;;;;;5051168;28;20499;-72
2021/08/04 06:10:00;;;;;;;7.80;7.20;;;18.70;1.00;;;;;;5050880;28;21258;-73
2021/08/04 06:12:27;;;;;;;8.43;7.60;;;18.80;1.00;;;;;;5052428;28;21050;-74
2021/08/04 06:14:55;;;;;;;7.13;6.53;;;18.90;1.00;;;;;;5052884;28;20460;-72
2021/08/04 06:17:21;;;;;;;7.20;6.37;;;19.00;1.00;;;;;;5057217;28;20475;-72
2021/08/04 06:19:48;;;;;;;10.30;9.27;;;19.00;1.00;;;;;;5056851;28;20551;-72
2021/08/04 06:22:15;;;;;;;7.53;6.10;;;19.20;1.00;;;;;;5050828;28;20424;-71
2021/08/04 06:24:41;;;;;;;6.97;6.20;;;19.20;1.00;;;;;;5055647;28;20464;-70
2021/08/04 06:27:08;;;;;;;7.60;7.07;;;19.20;1.00;;;;;;5043929;28;20659;-70
2021/08/04 06:29:35;;;;;;;7.30;6.40;;;19.20;1.00;;;;;;5048292;28;20560;-70
2021/08/04 06:32:04;;;;;;;7.40;6.70;;;19.30;1.00;;;;;;5027928;28;20459;-69
2021/08/04 06:34:30;;;;;;;7.67;6.97;;;19.40;1.00;;;;;;5048396;28;20477;-70
2021/08/04 06:36:57;;;;;;;8.40;7.10;;;19.50;1.00;;;;;;5044400;28;20519;-71
2021/08/04 06:39:24;;;;;;;6.40;5.90;;;19.50;1.00;;;;;;5050317;28;21050;-70
2021/08/04 06:41:50;;;;;;;6.60;5.97;;;19.60;1.00;;;;;;5046048;28;20436;-69
2021/08/04 06:44:17;;;;;;;5.47;4.97;;;19.60;1.00;;;;;;5048623;28;20480;-68
2021/08/04 06:46:44;;;;;;;5.30;4.80;;;19.60;1.00;;;;;;5052407;28;20440;-70
2021/08/04 06:49:12;;;;;;;5.13;4.73;;;19.70;1.00;;;;;;5047662;28;20470;-68
2021/08/04 06:51:39;;;;;;;8.43;5.23;;;19.70;1.00;;;;;;5044604;28;20936;-68
2021/08/04 06:54:05;;;;;;;6.30;5.43;;;19.80;1.00;;;;;;5049219;28;20424;-70
2021/08/04 06:56:32;;;;;;;8.20;6.47;;;19.90;1.00;;;;;;5047886;28;20453;-72
2021/08/04 06:58:58;;;;;;;5.50;4.77;;;20.00;1.00;;;;;;5048047;28;20456;-68
2021/08/04 07:01:25;;;;;;;6.23;5.67;;;20.00;1.00;;;;;;5048062;28;20431;-71
2021/08/04 07:03:52;;;;;;;6.20;4.73;;;20.00;1.00;;;;;;5042698;28;20952;-70
2021/08/04 07:06:20;;;;;;;6.67;4.90;;;20.10;1.00;;;;;;5043151;28;20456;-72
2021/08/04 07:08:47;;;;;;;5.67;5.07;;;20.20;1.00;;;;;;5049862;28;20461;-71
2021/08/04 07:11:13;;;;;;;5.40;5.00;;;20.30;1.00;;;;;;5048844;28;20828;-70
2021/08/04 07:13:40;;;;;;;6.40;5.90;;;20.30;1.00;;;;;;5048039;28;20816;-69
2021/08/04 07:16:07;;;;;;;5.53;5.03;;;20.30;1.00;;;;;;5047121;28;21450;-71
2021/08/04 07:18:34;;;;;;;14.87;13.03;;;20.40;1.00;;;;;;5048182;28;20459;-70
2021/08/04 07:21:01;;;;;;;6.40;5.20;;;20.40;1.00;;;;;;5048137;28;20440;-70
2021/08/04 07:23:29;;;;;;;6.13;5.63;;;20.40;1.00;;;;;;5044987;28;20461;-71
2021/08/04 07:25:55;;;;;;;5.77;5.13;;;20.50;1.00;;;;;;5053523;28;20474;-68
2021/08/04 07:28:22;;;;;;;5.90;5.30;;;20.40;1.00;;;;;;5053704;28;20465;-70
2021/08/04 07:30:49;;;;;;;5.40;4.80;;;20.40;1.00;;;;;;5053230;28;20417;-71
2021/08/04 07:33:17;;;;;;;5.23;4.60;;;20.50;1.00;;;;;;5056959;28;21032;-71
2021/08/04 07:35:44;;;;;;;6.07;5.30;;;20.70;1.00;;;;;;5056805;28;20416;-71
2021/08/04 07:38:10;;;;;;;5.20;4.80;;;20.80;1.00;;;;;;5052576;28;20465;-70
2021/08/04 07:40:39;;;;;;;5.10;4.70;;;20.90;1.00;;;;;;5064857;28;20437;-71
2021/08/04 07:43:05;;;;;;;5.27;4.80;;;21.00;1.00;;;;;;5048786;28;20457;-69
2021/08/04 07:45:32;;;;;;;7.30;5.47;;;20.90;1.00;;;;;;5057198;28;20545;-70
2021/08/04 07:47:59;;;;;;;4.70;4.30;;;20.80;1.00;;;;;;5049823;28;20457;-72
2021/08/04 07:50:25;;;;;;;6.80;6.23;;;20.80;1.00;;;;;;5060623;28;20457;-69
2021/08/04 07:52:55;;;;;;;5.63;5.13;;;20.90;1.00;;;;;;5053386;28;20449;-70
2021/08/04 07:55:22;;;;;;;5.40;4.83;;;20.90;1.00;;;;;;5056547;28;20431;-71
2021/08/04 07:57:50;;;;;;;5.87;5.47;;;20.90;1.00;;;;;;5056221;28;20511;-69
2021/08/04 08:00:17;;;;;;;5.33;4.87;;;20.90;1.00;;;;;;5051600;28;20457;-72
2021/08/04 08:02:44;;;;;;;5.47;4.97;;;20.80;1.00;;;;;;5050858;28;20470;-72
2021/08/04 08:05:13;;;;;;;5.50;4.50;;;21.00;1.00;;;;;;5054910;28;20471;-70
2021/08/04 08:07:45;;;;;;;6.67;4.90;;;21.10;1.00;;;;;;5053753;28;21471;-71
2021/08/04 08:10:12;;;;;;;4.67;4.20;;;21.20;1.00;;;;;;5056495;28;20457;-70
2021/08/04 08:12:39;;;;;;;4.90;4.50;;;21.30;1.00;;;;;;5056138;28;20827;-70
2021/08/04 08:15:08;;;;;;;12.63;5.37;;;21.50;1.00;;;;;;5049903;28;20640;-71
2021/08/04 08:17:35;;;;;;;5.20;3.83;;;21.60;1.00;;;;;;5051744;28;20470;-71
2021/08/04 08:20:02;;;;;;;4.83;4.10;;;21.60;1.00;;;;;;5049928;28;20695;-70
2021/08/04 08:22:29;;;;;;;4.00;3.67;;;21.70;1.00;;;;;;5056872;28;20457;-71
2021/08/04 08:24:56;;;;;;;4.13;3.73;;;21.80;1.00;;;;;;5051424;28;20480;-70
2021/08/04 08:27:23;;;;;;;5.00;3.67;;;21.80;1.00;;;;;;5051220;28;20540;-70
2021/08/04 08:29:49;;;;;;;5.93;4.17;;;21.70;1.00;;;;;;5053718;28;20455;-70
2021/08/04 08:32:17;;;;;;;6.30;4.23;;;21.80;1.00;;;;;;5051181;28;20548;-69
2021/08/04 08:34:45;;;;;;;6.13;4.00;;;21.90;1.00;;;;;;5055955;28;20453;-71
2021/08/04 08:37:12;;;;;;;4.20;3.40;;;22.00;1.00;;;;;;5055985;28;20484;-70
2021/08/04 08:39:38;;;;;;;6.00;5.50;;;22.20;1.00;;;;;;5051806;28;20427;-70
2021/08/04 08:42:06;;;;;;;3.60;3.27;;;22.40;1.00;;;;;;5058219;28;20462;-72
2021/08/04 08:44:33;;;;;;;4.43;3.33;;;22.50;1.00;;;;;;5059380;28;20485;-70
2021/08/04 08:47:00;;;;;;;5.03;3.63;;;22.70;1.00;;;;;;5053807;28;20483;-70
2021/08/04 08:49:29;;;;;;;4.27;3.47;;;22.70;1.00;;;;;;5053998;28;20520;-71
2021/08/04 08:51:56;;;;;;;3.70;3.40;;;22.70;1.00;;;;;;5050760;28;21335;-70
2021/08/04 08:54:24;;;;;;;4.80;3.53;;;22.60;1.00;;;;;;5060874;28;21170;-70
2021/08/04 08:56:50;;;;;;;5.03;4.03;;;22.60;1.00;;;;;;5050746;28;20467;-69
2021/08/04 08:59:18;;;;;;;5.70;3.57;;;22.70;1.00;;;;;;5051090;28;21002;-70
2021/08/04 09:01:45;;;;;;;5.90;3.70;;;22.90;1.00;;;;;;5050894;28;20470;-70
2021/08/04 09:04:15;;;;;;;5.07;3.80;;;23.20;1.00;;;;;;5051565;28;20466;-69
2021/08/04 09:06:53;;;;;;;4.00;3.60;;;23.30;1.00;;;;;;5047660;28;20456;-71
2021/08/04 09:09:21;;;;;;;4.43;3.50;;;23.30;1.00;;;;;;5045869;28;20443;-71
2021/08/04 09:11:50;;;;;;;4.73;4.23;;;23.30;1.00;;;;;;5051473;28;20433;-71
2021/08/04 09:14:16;;;;;;;4.60;4.10;;;23.40;1.00;;;;;;5044817;28;20618;-71
2021/08/04 09:16:45;;;;;;;4.37;3.70;;;23.40;1.00;;;;;;5060208;28;20490;-72
2021/08/04 09:19:23;;;;;;;4.67;4.20;;;23.40;1.00;;;;;;5053453;28;20951;-72
2021/08/04 09:22:13;;;;;;;4.73;3.77;;;23.50;1.00;;;;;;5048051;28;21449;-70
2021/08/04 09:25:04;;;;;;;4.40;3.97;;;23.70;1.00;;;;;;5053032;28;20574;-71
2021/08/04 09:27:46;;;;;;;4.83;4.33;;;23.70;1.00;;;;;;5048486;28;20432;-71
2021/08/04 09:30:15;;;;;;;4.57;4.17;;;23.70;1.00;;;;;;5055749;28;20510;-71
2021/08/04 09:32:42;;;;;;;4.43;3.90;;;23.80;1.00;;;;;;5074416;28;20516;-70
2021/08/04 09:35:11;;;;;;;4.47;3.70;;;24.10;1.00;;;;;;5078546;28;21042;-71
2021/08/04 09:37:40;;;;;;;6.73;5.90;;;25.10;1.00;;;;;;5067275;28;20452;-70
2021/08/04 09:40:08;;;;;;;6.40;5.27;;;26.20;1.00;;;;;;5053277;28;20443;-72
2021/08/04 09:42:44;;;;;;;4.03;3.60;;;26.90;1.00;;;;;;5053104;28;20452;-73
2021/08/04 09:45:11;;;;;;;4.60;4.20;;;28.00;1.00;;;;;;5049538;28;20419;-74
2021/08/04 09:47:38;;;;;;;4.90;3.57;;;29.10;1.00;;;;;;5054769;28;20454;-74
2021/08/04 09:50:08;;;;;;;5.97;5.37;;;29.30;1.00;;;;;;5053471;28;20527;-73
2021/08/04 09:52:35;;;;;;;4.47;4.07;;;29.70;1.00;;;;;;5056612;28;20525;-76
2021/08/04 09:55:14;;;;;;;3.97;3.13;;;30.30;1.00;;;;;;5064445;28;20469;-75
2021/08/04 09:57:42;;;;;;;4.97;3.50;;;30.60;1.00;;;;;;5060125;28;20464;-74
2021/08/04 10:00:12;;;;;;;3.80;3.50;;;31.40;1.00;;;;;;5064848;28;20444;-73
2021/08/04 10:02:40;;;;;;;4.87;3.03;;;31.80;1.00;;;;;;5056625;28;20461;-74
2021/08/04 10:05:21;;;;;;;3.50;3.20;;;32.10;1.00;;;;;;5059065;28;20451;-75
2021/08/04 10:08:09;;;;;;;3.40;3.10;;;32.50;1.00;;;;;;5056940;28;21036;-73
2021/08/04 10:10:39;;;;;;;3.93;3.33;;;32.20;1.00;;;;;;5060903;28;20918;-75
2021/08/04 10:13:08;;;;;;;3.97;3.40;;;31.10;1.00;;;;;;5056084;28;20454;-72
2021/08/04 10:15:40;;;;;;;6.27;4.30;;;30.00;1.00;;;;;;5055828;28;20495;-74
2021/08/04 10:18:10;;;;;;;4.30;3.20;;;28.70;1.00;;;;;;5060011;28;20475;-75
2021/08/04 10:20:38;;;;;;;4.17;3.60;;;27.50;1.00;;;;;;5039681;28;20448;-75
2021/08/04 10:23:05;;;;;;;3.43;3.13;;;26.80;1.00;;;;;;5057249;28;20966;-74
2021/08/04 10:25:34;;;;;;;4.17;3.70;;;26.10;1.00;;;;;;5057223;28;20605;-75
2021/08/04 10:28:04;;;;;;;3.90;3.60;;;25.60;1.00;;;;;;5053307;28;20492;-74
2021/08/04 10:30:31;;;;;;;3.33;3.13;;;25.50;1.00;;;;;;5061179;28;20441;-75
2021/08/04 10:32:58;;;;;;;3.83;3.43;;;26.20;1.00;;;;;;5055605;28;20448;-74
2021/08/04 10:35:26;;;;;;;3.87;3.00;;;26.90;1.00;;;;;;5057599;28;20458;-71
2021/08/04 10:37:54;;;;;;;6.17;3.00;;;27.60;1.00;;;;;;5042957;28;20486;-73
2021/08/04 10:40:25;;;;;;;3.83;3.50;;;28.70;1.00;;;;;;5053586;28;20427;-73
2021/08/04 10:42:52;;;;;;;2.53;2.33;;;29.70;1.00;;;;;;5054685;28;20444;-73
2021/08/04 10:45:37;;;;;;;7.23;3.03;;;30.60;1.00;;;;;;5051061;28;20491;-74
2021/08/04 10:48:25;;;;;;;3.73;3.40;;;31.20;1.00;;;;;;5040058;28;20435;-75
2021/08/04 10:51:15;;;;;;;3.37;3.07;;;32.00;1.00;;;;;;5053629;28;20482;-75
2021/08/04 10:54:14;;;;;;;2.77;2.53;;;32.60;1.00;;;;;;5056917;28;20439;-73
2021/08/04 10:57:10;;;;;;;3.13;2.63;;;32.70;1.00;;;;;;5051282;28;20447;-72
2021/08/04 10:59:38;;;;;;;2.77;2.57;;;33.10;1.00;;;;;;5052847;28;20548;-75
2021/08/04 11:02:28;;;;;;;4.30;2.93;;;33.10;1.00;;;;;;5051763;28;20843;-75
2021/08/04 11:04:56;;;;;;;2.73;2.53;;;33.30;1.00;;;;;;5051640;28;20466;-72
2021/08/04 11:07:24;;;;;;;2.63;2.43;;;33.50;1.00;;;;;;5056245;28;20458;-74
2021/08/04 11:10:01;;;;;;;2.70;2.50;;;33.10;1.00;;;;;;5058897;28;20447;-75
2021/08/04 11:12:44;;;;;;;4.30;2.60;;;33.70;1.00;;;;;;5055857;28;20580;-76
2021/08/04 11:15:31;;;;;;;3.20;2.67;;;33.40;1.00;;;;;;5058478;28;20481;-74
2021/08/04 11:18:07;;;;;;;2.90;2.70;;;32.80;1.00;;;;;;5062469;28;20515;-74
2021/08/04 11:20:37;;;;;;;6.93;5.23;;;30.60;1.00;;;;;;5065566;28;20517;-74
2021/08/04 11:23:08;;;;;;;3.60;3.30;;;29.10;1.00;;;;;;5059874;28;20441;-78
2021/08/04 11:25:43;;;;;;;3.63;2.57;;;29.40;1.00;;;;;;5069243;28;20470;-74
2021/08/04 11:28:17;;;;;;;4.40;3.17;;;31.10;1.00;;;;;;5063593;28;20460;-74
2021/08/04 11:30:46;;;;;;;3.03;2.70;;;32.50;1.00;;;;;;5060796;28;20463;-75
2021/08/04 11:33:31;;;;;;;3.47;2.60;;;33.40;1.00;;;;;;5059042;28;20536;-73
2021/08/04 11:36:09;;;;;;;3.53;2.73;;;32.90;1.00;;;;;;5059067;28;20450;-72
2021/08/04 11:38:41;;;;;;;2.97;2.67;;;31.90;1.00;;;;;;5041734;28;20482;-73
2021/08/04 11:41:24;;;;;;;3.50;3.20;;;30.40;1.00;;;;;;5057101;28;20487;-72
2021/08/04 11:43:57;;;;;;;3.90;3.50;;;30.10;1.00;;;;;;5039361;28;20477;-74
2021/08/04 11:46:34;;;;;;;5.33;3.10;;;31.10;1.00;;;;;;5056014;28;20474;-71
2021/08/04 11:49:04;;;;;;;3.63;2.70;;;31.70;1.00;;;;;;5058120;28;20986;-75
2021/08/04 11:51:37;;;;;;;3.80;2.60;;;32.20;1.00;;;;;;5052662;28;20458;-74
2021/08/04 11:54:05;;;;;;;2.90;2.70;;;33.30;1.00;;;;;;5057162;28;21005;-75
2021/08/04 11:56:32;;;;;;;2.80;2.60;;;33.60;1.00;;;;;;5054635;28;20407;-72
2021/08/04 11:59:03;;;;;;;3.03;2.73;;;33.10;1.00;;;;;;5057483;28;20451;-74
2021/08/04 12:01:30;;;;;;;2.63;2.43;;;32.50;1.00;;;;;;5054970;28;20457;-72
2021/08/04 12:04:19;;;;;;;2.10;1.90;;;32.90;1.00;;;;;;5051193;28;20614;-73
2021/08/04 12:06:57;;;;;;;4.43;2.93;;;33.50;1.00;;;;;;5050956;28;21068;-73
2021/08/04 12:09:27;;;;;;;2.37;2.17;;;34.00;1.00;;;;;;5054575;28;20458;-73
2021/08/04 12:11:55;;;;;;;3.33;3.00;;;34.10;1.00;;;;;;5059546;28;20455;-75
2021/08/04 12:14:22;;;;;;;2.57;2.30;;;34.40;1.00;;;;;;5051070;28;20435;-73
2021/08/04 12:16:52;;;;;;;2.70;2.10;;;35.10;1.00;;;;;;5052658;28;20581;-72
2021/08/04 12:19:44;;;;;;;3.60;2.80;;;33.80;1.00;;;;;;5051329;28;20527;-73
2021/08/04 12:22:22;;;;;;;3.33;2.70;;;31.30;1.00;;;;;;5036364;28;20474;-74
2021/08/04 12:24:52;;;;;;;4.13;2.50;;;29.60;1.00;;;;;;5051696;28;20455;-73
2021/08/04 12:27:37;;;;;;;2.80;2.20;;;30.60;1.00;;;;;;5051492;28;20451;-73
2021/08/04 12:30:10;;;;;;;3.20;2.10;;;32.70;1.00;;;;;;5048237;28;20462;-71
2021/08/04 12:32:49;;;;;;;3.03;2.60;;;34.70;1.00;;;;;;5051909;28;20447;-72
2021/08/04 12:35:22;;;;;;;3.17;2.87;;;35.10;1.00;;;;;;5047401;28;20451;-73
2021/08/04 12:37:49;;;;;;;3.80;2.17;;;35.10;1.00;;;;;;5049430;28;20923;-71
2021/08/04 12:40:15;;;;;;;2.20;2.00;;;34.70;1.00;;;;;;5049758;28;20459;-72
2021/08/04 12:42:42;;;;;;;2.90;2.60;;;32.80;1.00;;;;;;5054394;28;20450;-72
2021/08/04 12:45:22;;;;;;;3.73;2.60;;;31.00;1.00;;;;;;5045371;28;20543;-72
2021/08/04 12:47:55;;;;;;;2.70;2.50;;;30.30;1.00;;;;;;5048912;28;20464;-72
2021/08/04 12:50:25;;;;;;;3.57;2.60;;;31.30;1.00;;;;;;5050857;28;20823;-71
2021/08/04 12:52:51;;;;;;;2.93;2.50;;;32.60;1.00;;;;;;5049405;28;20547;-72
2021/08/04 12:55:18;;;;;;;4.20;3.10;;;33.80;1.00;;;;;;5049058;28;20541;-73
2021/08/04 12:57:45;;;;;;;3.53;2.70;;;33.30;1.00;;;;;;5057985;28;20549;-72
2021/08/04 13:00:27;;;;;;;3.70;3.00;;;32.20;1.00;;;;;;5059127;28;20469;-73
2021/08/04 13:02:54;;;;;;;6.00;5.50;;;30.70;1.00;;;;;;5050311;28;20510;-73
2021/08/04 13:05:21;;;;;;;4.00;3.60;;;29.50;1.00;;;;;;5048726;28;20493;-71